createdAt,value
2022-11-18T00:01:06.864Z,99941.16
2022-11-18T00:03:34.797Z,99942.59
2022-11-18T00:06:04.327Z,99947.19
2022-11-18T00:08:31.787Z,99959.19
2022-11-18T00:10:59.248Z,99958.34
2022-11-18T00:13:44.338Z,99950.16
2022-11-18T00:16:13.537Z,99940.13
2022-11-18T00:18:41.055Z,99944.63
2022-11-18T00:21:12.328Z,99944.25
2022-11-18T00:23:40.522Z,99940.78
2022-11-18T00:26:10.081Z,99952.31
2022-11-18T00:28:37.840Z,99947.41
2022-11-18T00:31:07.814Z,99955.63
2022-11-18T00:33:36.832Z,99947.75
2022-11-18T00:36:05.073Z,99946.16
2022-11-18T00:38:34.123Z,99956.28
2022-11-18T00:41:02.609Z,99951.25
2022-11-18T00:43:30.022Z,99954.03
2022-11-18T00:45:57.767Z,99949.63
2022-11-18T00:48:25.310Z,99967.56
2022-11-18T00:50:54.184Z,99950.59
2022-11-18T00:53:23.334Z,99959.75
2022-11-18T00:55:52.192Z,99960.34
2022-11-18T00:58:20.247Z,99955.03
2022-11-18T01:00:52.351Z,99953.69
2022-11-18T01:03:20.745Z,99951.50
2022-11-18T01:05:48.635Z,99956.00
2022-11-18T01:08:17.781Z,99954.53
2022-11-18T01:10:45.199Z,99954.22
2022-11-18T01:13:20.937Z,99957.53
2022-11-18T01:15:49.964Z,99944.66
2022-11-18T01:18:18.160Z,99960.38
2022-11-18T01:20:46.293Z,99958.16
2022-11-18T01:23:14.694Z,99956.47
2022-11-18T01:25:44.088Z,99981.31
2022-11-18T01:28:12.468Z,99961.53
2022-11-18T01:30:42.688Z,99964.81
2022-11-18T01:33:10.219Z,99950.84
2022-11-18T01:35:38.343Z,99965.19
2022-11-18T01:38:07.007Z,99975.91
2022-11-18T01:40:35.778Z,99978.63
2022-11-18T01:43:03.411Z,99979.03
2022-11-18T01:45:35.040Z,99981.22
2022-11-18T01:48:09.384Z,99985.44
2022-11-18T01:50:40.483Z,99981.38
2022-11-18T01:53:12.963Z,99973.63
2022-11-18T01:55:45.918Z,99975.94
2022-11-18T01:58:20.542Z,99961.59
2022-11-18T02:00:47.961Z,99974.59
2022-11-18T02:03:17.829Z,99971.91
2022-11-18T02:05:48.067Z,99980.03
2022-11-18T02:08:16.706Z,99980.09
2022-11-18T02:10:44.128Z,99985.75
2022-11-18T02:13:12.676Z,99983.63
2022-11-18T02:15:48.789Z,99978.75
2022-11-18T02:18:29.122Z,99973.72
2022-11-18T02:21:04.699Z,99976.50
2022-11-18T02:23:58.598Z,99983.75
2022-11-18T02:27:05.621Z,99970.34
2022-11-18T02:29:40.466Z,99976.25
2022-11-18T02:32:12.193Z,99990.75
2022-11-18T02:35:16.310Z,99971.47
2022-11-18T02:37:49.093Z,99977.84
2022-11-18T02:40:23.295Z,99986.16
2022-11-18T02:42:55.677Z,99975.19
2022-11-18T02:45:26.734Z,99983.72
2022-11-18T02:47:58.567Z,99989.84
2022-11-18T02:50:30.091Z,99986.66
2022-11-18T02:53:01.605Z,99981.34
2022-11-18T02:55:31.759Z,99983.28
2022-11-18T02:58:00.170Z,99977.00
2022-11-18T03:00:29.150Z,99980.91
2022-11-18T03:02:56.547Z,99984.69
2022-11-18T03:05:32.140Z,99989.53
2022-11-18T03:08:09.149Z,99984.50
2022-11-18T03:10:44.069Z,99980.31
2022-11-18T03:13:17.635Z,99979.66
2022-11-18T03:15:54.258Z,99970.75
2022-11-18T03:18:29.040Z,99974.50
2022-11-18T03:21:03.690Z,99978.00
2022-11-18T03:23:37.252Z,99978.06
2022-11-18T03:26:10.149Z,99987.19
2022-11-18T03:28:44.683Z,99989.44
2022-11-18T03:31:19.289Z,99997.81
2022-11-18T03:33:51.734Z,100002.47
2022-11-18T03:36:23.089Z,100004.31
2022-11-18T03:38:55.219Z,100007.72
2022-11-18T03:41:25.194Z,99998.00
2022-11-18T03:43:58.519Z,100002.69
2022-11-18T03:46:35.211Z,100002.69
2022-11-18T03:49:02.798Z,100004.91
2022-11-18T03:51:34.458Z,100004.88
2022-11-18T03:54:08.432Z,100016.53
2022-11-18T03:56:42.158Z,100023.56
2022-11-18T03:59:14.473Z,100025.47
2022-11-18T04:01:49.692Z,100027.72
2022-11-18T04:04:18.326Z,100016.16
2022-11-18T04:06:49.630Z,100033.03
2022-11-18T04:09:21.073Z,100031.59
2022-11-18T04:12:03.541Z,100035.53
2022-11-18T04:14:33.001Z,100041.03
2022-11-18T04:17:06.332Z,100028.97
2022-11-18T04:19:33.729Z,100036.69
2022-11-18T04:22:01.098Z,100035.72
2022-11-18T04:24:28.484Z,100028.41
2022-11-18T04:26:55.907Z,100038.91
2022-11-18T04:29:23.685Z,100030.50
2022-11-18T04:31:51.245Z,100028.88
2022-11-18T04:34:19.948Z,100031.84
2022-11-18T04:36:47.337Z,100039.38
2022-11-18T04:39:15.276Z,100039.38
2022-11-18T04:41:58.131Z,100053.78
2022-11-18T04:44:27.444Z,100052.81
2022-11-18T04:46:56.071Z,100059.00
2022-11-18T04:49:25.473Z,100058.63
2022-11-18T04:51:53.688Z,100055.94
2022-11-18T04:54:22.271Z,100062.66
2022-11-18T04:56:50.292Z,100067.94
2022-11-18T04:59:20.866Z,100075.91
2022-11-18T05:01:48.886Z,100074.81
2022-11-18T05:04:18.592Z,100071.44
2022-11-18T05:06:47.584Z,100071.94
2022-11-18T05:09:15.749Z,100072.00
2022-11-18T05:12:00.824Z,100083.75
2022-11-18T05:14:29.079Z,100080.94
2022-11-18T05:16:58.608Z,100081.34
2022-11-18T05:19:26.313Z,100084.59
2022-11-18T05:21:55.203Z,100075.00
2022-11-18T05:24:24.049Z,100082.59
2022-11-18T05:26:52.098Z,100078.00
2022-11-18T05:29:20.508Z,100080.72
2022-11-18T05:31:48.355Z,100092.47
2022-11-18T05:34:16.404Z,100092.59
2022-11-18T05:36:43.807Z,100092.34
2022-11-18T05:39:12.539Z,100100.38
2022-11-18T05:41:57.611Z,100101.81
2022-11-18T05:44:25.002Z,100095.19
2022-11-18T05:46:52.597Z,100092.34
2022-11-18T05:49:20.331Z,100103.53
2022-11-18T05:51:47.965Z,100108.16
2022-11-18T05:54:19.152Z,100125.09
2022-11-18T05:56:46.555Z,100113.84
2022-11-18T05:59:14.955Z,100142.22
2022-11-18T06:01:46.076Z,100126.69
2022-11-18T06:04:18.422Z,100126.84
2022-11-18T06:06:49.069Z,100137.75
2022-11-18T06:09:22.377Z,100138.97
2022-11-18T06:11:54.028Z,100143.16
2022-11-18T06:14:26.612Z,100142.81
2022-11-18T06:16:58.255Z,100139.56
2022-11-18T06:19:27.003Z,100147.53
2022-11-18T06:21:55.030Z,100147.94
2022-11-18T06:24:24.741Z,100158.31
2022-11-18T06:26:52.748Z,100163.50
2022-11-18T06:29:26.205Z,100151.38
2022-11-18T06:31:55.182Z,100156.03
2022-11-18T06:34:23.422Z,100162.59
2022-11-18T06:36:50.803Z,100160.72
2022-11-18T06:39:18.307Z,100182.06
2022-11-18T06:41:47.215Z,100167.53
2022-11-18T06:44:14.222Z,100176.41
2022-11-18T06:46:56.919Z,100183.53
2022-11-18T06:49:24.494Z,100198.34
2022-11-18T06:51:52.319Z,100188.47
2022-11-18T06:54:19.881Z,100184.97
2022-11-18T06:56:48.623Z,100197.13
2022-11-18T06:59:21.577Z,100200.31
2022-11-18T07:01:49.078Z,100207.94
2022-11-18T07:04:16.495Z,100204.22
2022-11-18T07:06:43.900Z,100200.69
2022-11-18T07:09:11.308Z,100212.34
2022-11-18T07:11:41.186Z,100201.53
2022-11-18T07:14:10.464Z,100221.78
2022-11-18T07:16:38.337Z,100210.19
2022-11-18T07:19:10.634Z,100223.47
2022-11-18T07:21:38.847Z,100215.81
2022-11-18T07:24:08.159Z,100234.59
2022-11-18T07:26:36.363Z,100221.53
2022-11-18T07:29:03.875Z,100235.00
2022-11-18T07:31:33.857Z,100227.94
2022-11-18T07:34:01.319Z,100227.53
2022-11-18T07:36:35.439Z,100243.53
2022-11-18T07:39:05.502Z,100234.13
2022-11-18T07:41:33.915Z,100241.22
2022-11-18T07:44:02.911Z,100238.19
2022-11-18T07:46:33.150Z,100234.50
2022-11-18T07:49:02.020Z,100232.22
2022-11-18T07:51:31.629Z,100241.44
2022-11-18T07:53:59.477Z,100241.00
2022-11-18T07:56:27.745Z,100250.47
2022-11-18T07:58:56.449Z,100247.53
2022-11-18T08:01:25.537Z,100246.59
2022-11-18T08:03:54.321Z,100250.13
2022-11-18T08:06:22.001Z,100256.59
2022-11-18T08:08:49.723Z,100260.72
2022-11-18T08:11:22.996Z,100259.28
2022-11-18T08:13:50.771Z,100262.63
2022-11-18T08:16:20.173Z,100262.19
2022-11-18T08:18:48.207Z,100257.81
2022-11-18T08:21:18.774Z,100265.41
2022-11-18T08:23:51.190Z,100268.84
2022-11-18T08:26:18.989Z,100281.50
2022-11-18T08:28:46.915Z,100275.78
2022-11-18T08:31:16.887Z,100282.63
2022-11-18T08:33:44.505Z,100287.97
2022-11-18T08:36:15.923Z,100281.91
2022-11-18T08:38:44.937Z,100288.56
2022-11-18T08:41:14.073Z,100284.50
2022-11-18T08:43:41.592Z,100292.28
2022-11-18T08:46:09.050Z,100291.31
2022-11-18T08:48:36.677Z,100312.00
2022-11-18T08:51:05.942Z,100314.41
2022-11-18T08:53:33.813Z,100306.34
2022-11-18T08:56:02.527Z,100324.28
2022-11-18T08:58:30.023Z,100329.94
2022-11-18T09:00:57.492Z,100310.84
2022-11-18T09:03:25.051Z,100338.75
2022-11-18T09:05:52.461Z,100336.72
2022-11-18T09:08:19.938Z,100341.38
2022-11-18T09:10:47.425Z,100348.19
2022-11-18T09:13:44.811Z,100342.22
2022-11-18T09:16:04.916Z,100341.13
2022-11-18T09:18:32.610Z,100345.25
2022-11-18T09:21:02.220Z,100348.19
2022-11-18T09:23:29.626Z,100381.03
2022-11-18T09:26:00.135Z,100367.22
2022-11-18T09:28:29.248Z,100390.34
2022-11-18T09:30:56.776Z,100374.31
2022-11-18T09:33:24.297Z,100374.31
2022-11-18T09:35:51.712Z,100390.53
2022-11-18T09:38:19.143Z,100369.00
2022-11-18T09:40:57.356Z,100378.69
2022-11-18T09:43:36.202Z,100372.06
2022-11-18T09:46:16.457Z,100369.19
2022-11-18T09:49:01.439Z,100377.28
2022-11-18T09:51:31.315Z,100379.78
2022-11-18T09:53:58.723Z,100380.13
2022-11-18T09:56:28.197Z,100385.06
2022-11-18T09:58:57.882Z,100393.06
2022-11-18T10:01:27.696Z,100404.50
2022-11-18T10:03:55.515Z,100404.19
2022-11-18T10:06:26.542Z,100416.59
2022-11-18T10:09:06.250Z,100417.97
2022-11-18T10:11:41.749Z,100408.09
2022-11-18T10:14:25.835Z,100410.94
2022-11-18T10:17:02.306Z,100414.75
2022-11-18T10:19:38.618Z,100419.63
2022-11-18T10:22:24.362Z,100419.06
2022-11-18T10:24:54.352Z,100408.34
2022-11-18T10:27:22.548Z,100423.19
2022-11-18T10:29:56.175Z,100422.31
2022-11-18T10:32:23.881Z,100413.66
2022-11-18T10:34:53.524Z,100411.88
2022-11-18T10:37:45.424Z,100418.72
2022-11-18T10:40:25.533Z,100426.72
2022-11-18T10:42:53.015Z,100430.78
2022-11-18T10:45:28.724Z,100429.41
2022-11-18T10:47:59.467Z,100426.19
2022-11-18T10:50:38.043Z,100430.06
2022-11-18T10:53:06.450Z,100428.28
2022-11-18T10:55:34.664Z,100426.88
2022-11-18T10:58:08.673Z,100430.94
2022-11-18T11:00:42.186Z,100437.19
2022-11-18T11:03:27.852Z,100450.75
2022-11-18T11:06:22.931Z,100454.34
2022-11-18T11:08:51.887Z,100448.44
2022-11-18T11:11:28.590Z,100454.41
2022-11-18T11:14:05.667Z,100467.84
2022-11-18T11:16:40.503Z,100453.16
2022-11-18T11:19:12.373Z,100452.00
2022-11-18T11:21:39.782Z,100443.47
2022-11-18T11:24:12.634Z,100448.09
2022-11-18T11:30:04.359Z,100456.13
2022-11-18T11:32:44.210Z,100449.75
2022-11-18T11:35:18.105Z,100456.97
2022-11-18T11:37:54.491Z,100449.19
2022-11-18T11:40:30.565Z,100436.13
2022-11-18T11:43:11.627Z,100449.91
2022-11-18T11:45:54.926Z,100454.34
2022-11-18T11:48:39.924Z,100452.69
2022-11-18T11:51:16.051Z,100447.00
2022-11-18T11:54:20.047Z,100443.19
2022-11-18T11:56:52.416Z,100453.91
2022-11-18T11:59:29.213Z,100455.66
2022-11-18T12:02:16.062Z,100463.00
2022-11-18T12:04:47.540Z,100457.53
2022-11-18T12:07:18.982Z,100460.03
2022-11-18T12:10:06.744Z,100459.47
2022-11-18T12:12:38.605Z,100466.81
2022-11-18T12:15:24.075Z,100463.34
2022-11-18T12:17:59.845Z,100471.47
2022-11-18T12:20:44.871Z,100471.81
2022-11-18T12:23:18.521Z,100493.03
2022-11-18T12:25:55.335Z,100484.78
2022-11-18T12:28:29.347Z,100477.88
2022-11-18T12:31:35.400Z,100480.16
2022-11-18T12:34:19.648Z,100482.22
2022-11-18T12:36:48.748Z,100494.25
2022-11-18T12:39:49.172Z,100483.34
2022-11-18T12:43:03.754Z,100501.66
2022-11-18T12:45:58.813Z,100502.31
2022-11-18T12:48:35.324Z,100502.03
2022-11-18T12:51:04.337Z,100509.38
2022-11-18T12:53:38.700Z,100511.16
2022-11-18T12:56:22.200Z,100507.31
2022-11-18T12:58:51.944Z,100508.13
2022-11-18T13:01:22.156Z,100514.88
2022-11-18T13:03:49.743Z,100505.94
2022-11-18T13:06:25.943Z,100506.16
2022-11-18T13:08:58.827Z,100502.91
2022-11-18T13:11:42.101Z,100494.28
2022-11-18T13:14:33.838Z,100504.47
2022-11-18T13:17:19.194Z,100504.56
2022-11-18T13:19:56.591Z,100507.31
2022-11-18T13:22:41.166Z,100504.63
2022-11-18T13:25:23.712Z,100510.69
2022-11-18T13:27:58.113Z,100525.97
2022-11-18T13:30:25.657Z,100524.50
2022-11-18T13:32:58.737Z,100537.66
2022-11-18T13:35:29.127Z,100525.94
2022-11-18T13:37:58.649Z,100524.91
2022-11-18T13:40:30.057Z,100526.44
2022-11-18T13:42:57.570Z,100524.75
2022-11-18T13:45:28.772Z,100515.22
2022-11-18T13:48:02.303Z,100518.66
2022-11-18T13:50:34.274Z,100513.59
2022-11-18T13:53:09.423Z,100525.72
2022-11-18T13:55:41.526Z,100533.47
2022-11-18T13:58:28.050Z,100544.59
2022-11-18T14:00:57.686Z,100539.03
2022-11-18T14:03:28.996Z,100538.69
2022-11-18T14:05:57.237Z,100547.03
2022-11-18T14:08:29.086Z,100549.09
2022-11-18T14:10:58.889Z,100554.59
2022-11-18T14:13:29.113Z,100548.69
2022-11-18T14:15:58.441Z,100543.75
2022-11-18T14:18:32.056Z,100559.38
2022-11-18T14:21:00.794Z,100553.38
2022-11-18T14:23:31.105Z,100550.81
2022-11-18T14:26:01.948Z,100570.31
2022-11-18T14:28:33.842Z,100576.56
2022-11-18T14:31:04.838Z,100572.72
2022-11-18T14:33:33.127Z,100581.69
2022-11-18T14:36:02.542Z,100588.44
2022-11-18T14:38:47.645Z,100593.66
2022-11-18T14:41:44.246Z,100592.13
2022-11-18T14:44:13.313Z,100587.59
2022-11-18T14:46:43.181Z,100585.38
2022-11-18T14:49:14.641Z,100595.75
2022-11-18T14:51:42.042Z,100593.78
2022-11-18T14:54:13.757Z,100600.78
2022-11-18T14:56:43.606Z,100594.56
2022-11-18T14:59:14.030Z,100601.97
2022-11-18T15:01:42.489Z,100603.31
2022-11-18T15:04:10.403Z,100598.06
2022-11-18T15:06:39.646Z,100610.00
2022-11-18T15:09:08.075Z,100610.97
2022-11-18T15:11:35.745Z,100612.63
2022-11-18T15:14:04.551Z,100615.41
2022-11-18T15:16:33.520Z,100616.56
2022-11-18T15:19:04.016Z,100623.91
2022-11-18T15:21:31.806Z,100626.84
2022-11-18T15:23:59.227Z,100621.72
2022-11-18T15:26:28.702Z,100627.59
2022-11-18T15:28:57.870Z,100632.38
2022-11-18T15:31:26.935Z,100637.06
2022-11-18T15:33:54.821Z,100627.88
2022-11-18T15:36:23.803Z,100642.25
2022-11-18T15:38:52.162Z,100639.25
2022-11-18T15:41:21.453Z,100639.09
2022-11-18T15:43:48.944Z,100650.47
2022-11-18T15:46:17.439Z,100650.50
2022-11-18T15:48:46.920Z,100650.88
2022-11-18T15:51:15.217Z,100650.31
2022-11-18T15:53:42.609Z,100662.41
2022-11-18T15:56:27.789Z,100661.97
2022-11-18T15:58:57.189Z,100657.41
2022-11-18T16:01:25.603Z,100647.16
2022-11-18T16:03:54.610Z,100662.53
2022-11-18T16:06:22.295Z,100653.63
2022-11-18T16:08:54.433Z,100661.25
2022-11-18T16:11:42.850Z,100668.59
2022-11-18T16:14:13.078Z,100677.28
2022-11-18T16:16:42.746Z,100673.50
2022-11-18T16:19:13.206Z,100672.13
2022-11-18T16:21:43.305Z,100674.88
2022-11-18T16:24:15.015Z,100676.34
2022-11-18T16:26:42.723Z,100673.34
2022-11-18T16:29:12.369Z,100668.81
2022-11-18T16:31:39.930Z,100684.19
2022-11-18T16:34:08.143Z,100683.88
2022-11-18T16:36:37.216Z,100679.69
2022-11-18T16:39:06.179Z,100678.50
2022-11-18T16:41:33.588Z,100687.44
2022-11-18T16:44:03.609Z,100689.84
2022-11-18T16:46:32.443Z,100692.22
2022-11-18T16:49:00.527Z,100709.41
2022-11-18T16:51:29.187Z,100707.66
2022-11-18T16:53:59.491Z,100712.69
2022-11-18T16:56:28.952Z,100710.97
2022-11-18T16:59:00.861Z,100717.13
2022-11-18T17:01:29.877Z,100716.28
2022-11-18T17:04:00.497Z,100721.25
2022-11-18T17:06:28.242Z,100720.13
2022-11-18T17:08:55.638Z,100727.97
2022-11-18T17:11:24.355Z,100722.22
2022-11-18T17:13:56.435Z,100732.47
2022-11-18T17:16:26.033Z,100718.91
2022-11-18T17:18:57.678Z,100722.19
2022-11-18T17:21:26.394Z,100723.16
2022-11-18T17:23:54.723Z,100731.09
2022-11-18T17:26:25.074Z,100729.88
2022-11-18T17:28:52.686Z,100727.66
2022-11-18T17:31:21.767Z,100732.31
2022-11-18T17:33:50.529Z,100730.31
2022-11-18T17:36:20.197Z,100729.88
2022-11-18T17:38:49.511Z,100735.34
2022-11-18T17:41:32.851Z,100745.41
2022-11-18T17:44:03.563Z,100743.78
2022-11-18T17:46:36.343Z,100740.78
2022-11-18T17:49:07.851Z,100745.06
2022-11-18T17:51:35.237Z,100752.03
2022-11-18T17:54:02.902Z,100746.16
2022-11-18T17:56:30.326Z,100742.97
2022-11-18T17:58:58.007Z,100748.41
2022-11-18T18:01:26.845Z,100745.38
2022-11-18T18:03:54.384Z,100743.47
2022-11-18T18:06:21.926Z,100752.19
2022-11-18T18:08:49.619Z,100747.47
2022-11-18T18:11:18.683Z,100749.38
2022-11-18T18:14:04.444Z,100755.31
2022-11-18T18:16:33.891Z,100754.09
2022-11-18T18:19:02.762Z,100762.94
2022-11-18T18:21:30.435Z,100761.16
2022-11-18T18:23:57.846Z,100768.31
2022-11-18T18:26:30.919Z,100768.00
2022-11-18T18:28:59.359Z,100776.00
2022-11-18T18:31:26.842Z,100778.16
2022-11-18T18:33:56.086Z,100773.03
2022-11-18T18:36:25.093Z,100785.97
2022-11-18T18:38:53.302Z,100789.63
2022-11-18T18:41:22.797Z,100780.78
2022-11-18T18:43:51.193Z,100784.78
2022-11-18T18:46:29.101Z,100792.25
2022-11-18T18:49:00.953Z,100786.19
2022-11-18T18:51:30.338Z,100791.22
2022-11-18T18:53:58.510Z,100790.22
2022-11-18T18:56:26.577Z,100788.00
2022-11-18T18:58:54.095Z,100789.81
2022-11-18T19:01:22.031Z,100788.16
2022-11-18T19:04:01.607Z,100789.78
2022-11-18T19:09:19.144Z,100788.91
2022-11-18T19:12:04.511Z,100792.91
2022-11-18T19:14:34.070Z,100793.69
2022-11-18T19:17:08.183Z,100794.56
2022-11-18T19:19:57.235Z,100810.00
2022-11-18T19:22:25.578Z,100806.47
2022-11-18T19:24:53.847Z,100804.09
2022-11-18T19:27:21.649Z,100805.19
2022-11-18T19:29:49.099Z,100802.41
2022-11-18T19:32:16.810Z,100814.34
2022-11-18T19:34:45.633Z,100823.81
2022-11-18T19:37:13.059Z,100814.25
2022-11-18T19:39:40.476Z,100819.81
2022-11-18T19:42:10.597Z,100821.28
2022-11-18T19:44:38.113Z,100825.13
2022-11-18T19:47:08.823Z,100823.69
2022-11-18T19:49:36.314Z,100813.75
2022-11-18T19:52:05.063Z,100832.53
2022-11-18T19:54:32.536Z,100826.13
2022-11-18T19:57:00.961Z,100840.25
2022-11-18T19:59:28.491Z,100842.50
2022-11-18T20:01:56.070Z,100834.59
2022-11-18T20:04:23.752Z,100842.13
2022-11-18T20:06:51.310Z,100845.75
2022-11-18T20:09:20.517Z,100843.84
2022-11-18T20:11:49.114Z,100847.03
2022-11-18T20:14:16.521Z,100850.56
2022-11-18T20:16:43.958Z,100848.69
2022-11-18T20:19:13.556Z,100848.97
2022-11-18T20:21:43.248Z,100849.97
2022-11-18T20:24:16.851Z,100846.53
2022-11-18T20:26:46.154Z,100851.47
2022-11-18T20:29:13.891Z,100863.06
2022-11-18T20:31:42.616Z,100856.69
2022-11-18T20:34:14.310Z,100853.69
2022-11-18T20:36:42.317Z,100862.91
2022-11-18T20:39:17.424Z,100866.03
2022-11-18T20:42:10.365Z,100870.59
2022-11-18T20:44:37.825Z,100870.81
2022-11-18T20:47:05.270Z,100876.78
2022-11-18T20:49:32.678Z,100880.88
2022-11-18T20:52:00.173Z,100886.03
2022-11-18T20:54:27.650Z,100884.00
2022-11-18T20:56:56.431Z,100884.75
2022-11-18T20:59:23.880Z,100891.22
2022-11-18T21:01:51.696Z,100892.78
2022-11-18T21:04:19.303Z,100897.88
2022-11-18T21:06:47.392Z,100896.78
2022-11-18T21:09:16.997Z,100894.13
2022-11-18T21:11:44.850Z,100900.47
2022-11-18T21:14:24.106Z,100908.94
2022-11-18T21:16:52.937Z,100910.59
2022-11-18T21:19:20.813Z,100917.13
2022-11-18T21:21:51.854Z,100919.50
2022-11-18T21:24:20.689Z,100912.50
2022-11-18T21:26:49.871Z,100908.56
2022-11-18T21:29:19.510Z,100913.53
2022-11-18T21:31:47.996Z,100918.53
2022-11-18T21:34:16.293Z,100918.13
2022-11-18T21:36:47.860Z,100911.06
2022-11-18T21:39:18.111Z,100914.66
2022-11-18T21:41:49.352Z,100924.31
2022-11-18T21:44:21.015Z,100927.13
2022-11-18T21:46:48.423Z,100928.13
2022-11-18T21:49:16.409Z,100917.44
2022-11-18T21:51:44.800Z,100926.47
2022-11-18T21:54:12.909Z,100933.34
2022-11-18T21:56:40.500Z,100928.69
2022-11-18T21:59:07.985Z,100920.44
2022-11-18T22:01:36.809Z,100920.28
2022-11-18T22:04:05.813Z,100923.59
2022-11-18T22:06:34.532Z,100918.28
2022-11-18T22:09:03.554Z,100922.78
2022-11-18T22:11:31.331Z,100915.25
2022-11-18T22:13:59.011Z,100916.97
2022-11-18T22:16:27.827Z,100919.28
2022-11-18T22:19:03.680Z,100921.19
2022-11-18T22:21:32.640Z,100918.81
2022-11-18T22:24:01.357Z,100923.50
2022-11-18T22:26:29.884Z,100920.97
2022-11-18T22:28:58.978Z,100926.25
2022-11-18T22:31:28.520Z,100928.22
2022-11-18T22:33:57.564Z,100940.03
2022-11-18T22:36:27.322Z,100935.97
2022-11-18T22:38:55.743Z,100939.31
2022-11-18T22:41:42.434Z,100940.19
2022-11-18T22:44:11.124Z,100944.56
2022-11-18T22:46:40.999Z,100949.28
2022-11-18T22:49:11.804Z,100944.22
2022-11-18T22:51:40.295Z,100942.63
2022-11-18T22:54:38.388Z,100948.22
2022-11-18T22:56:56.594Z,100957.97
2022-11-18T22:59:24.333Z,100961.91
2022-11-18T23:01:52.494Z,100927.84
2022-11-18T23:04:21.350Z,100917.88
2022-11-18T23:06:49.082Z,100905.50
2022-11-18T23:09:17.013Z,100913.25
2022-11-18T23:12:02.617Z,100919.81
2022-11-18T23:14:30.255Z,100932.31
2022-11-18T23:16:57.723Z,100952.75
2022-11-18T23:19:26.585Z,100953.00
2022-11-18T23:21:54.028Z,100955.97
2022-11-18T23:24:21.517Z,100952.66
2022-11-18T23:26:49.220Z,100952.25
2022-11-18T23:29:17.783Z,100964.31
2022-11-18T23:31:45.858Z,100965.63
2022-11-18T23:34:15.239Z,100969.59
2022-11-18T23:36:44.066Z,100968.41
2022-11-18T23:39:11.842Z,100964.22
2022-11-18T23:41:39.759Z,100965.56
2022-11-18T23:44:07.588Z,100968.00
2022-11-18T23:46:35.304Z,100965.63
2022-11-18T23:49:02.769Z,100967.16
2022-11-18T23:51:30.154Z,100972.09
2022-11-18T23:53:59.203Z,100982.56
2022-11-18T23:56:28.074Z,100982.19
2022-11-18T23:58:57.794Z,100973.81
